Time;durP1;ratioP1;P1;durP2;ratioP2;P2;SDS_P1;SDS_P2;PMS_P1;PMS_P2;Temp;Humidity;BMP_temperature;BMP_pressure;BME280_temperature;BME280_humidity;BME280_pressure;Samples;Min_cycle;Max_cycle;Signal;HPM_P1;HPM_P2
2022/06/24 00:01:15;;;;;;;3.55;1.17;;;;;;;18.42;100.00;96226.31;5051382;28;20307;-52
2022/06/24 00:03:45;;;;;;;3.40;1.25;;;;;;;18.46;100.00;96224.06;5050260;28;20218;-52
2022/06/24 00:06:15;;;;;;;2.80;1.67;;;;;;;18.45;100.00;96222.44;5050514;28;20237;-52
2022/06/24 00:08:58;;;;;;;2.05;1.35;;;;;;;18.49;100.00;96225.53;5051384;28;20220;-52
2022/06/24 00:11:26;;;;;;;2.85;1.30;;;;;;;18.56;100.00;96221.06;5055071;28;20286;-53
2022/06/24 00:14:07;;;;;;;2.60;1.27;;;;;;;18.48;100.00;96219.34;5055250;28;20854;-52
2022/06/24 00:16:53;;;;;;;2.47;1.25;;;;;;;18.42;100.00;96220.16;5054954;28;20203;-51
2022/06/24 00:19:21;;;;;;;1.52;1.00;;;;;;;18.47;100.00;96223.06;5054721;28;20207;-53
2022/06/24 00:22:00;;;;;;;4.78;1.20;;;;;;;18.44;100.00;96227.97;5054738;28;20624;-52
2022/06/24 00:24:29;;;;;;;2.55;1.20;;;;;;;18.42;100.00;96226.31;5055303;28;20296;-52
2022/06/24 00:26:59;;;;;;;2.63;1.35;;;;;;;18.38;100.00;96225.09;5055026;28;20302;-52
2022/06/24 00:29:27;;;;;;;1.92;0.95;;;;;;;18.33;100.00;96224.88;5053401;28;20205;-52
2022/06/24 00:32:02;;;;;;;2.58;1.30;;;;;;;18.32;100.00;96225.06;5054947;28;20211;-52
2022/06/24 00:34:29;;;;;;;5.82;1.25;;;;;;;18.36;100.00;96226.31;5054233;28;20691;-52
2022/06/24 00:36:57;;;;;;;1.92;1.30;;;;;;;18.30;100.00;96219.09;5054309;28;20300;-52
2022/06/24 00:39:35;;;;;;;2.58;1.30;;;;;;;18.28;100.00;96223.84;5077320;28;20226;-52
2022/06/24 00:42:01;;;;;;;3.42;1.77;;;;;;;18.24;100.00;96227.94;5076594;28;20211;-52
2022/06/24 00:44:29;;;;;;;1.67;1.30;;;;;;;18.22;100.00;96219.25;5064941;28;20215;-51
2022/06/24 00:46:59;;;;;;;4.40;1.60;;;;;;;18.23;100.00;96224.44;5054592;28;20299;-51
2022/06/24 00:49:27;;;;;;;2.85;1.50;;;;;;;18.21;100.00;96213.06;5053336;28;20227;-51
2022/06/24 00:51:54;;;;;;;2.30;1.25;;;;;;;18.29;100.00;96220.94;5037038;28;20613;-51
2022/06/24 00:54:24;;;;;;;3.33;1.50;;;;;;;18.28;100.00;96218.47;5053993;28;20644;-51
2022/06/24 00:56:56;;;;;;;4.18;1.27;;;;;;;18.19;100.00;96225.84;5053935;28;20298;-52
2022/06/24 00:59:24;;;;;;;1.38;0.95;;;;;;;18.17;100.00;96214.53;5053070;28;20215;-52
2022/06/24 01:01:51;;;;;;;4.10;1.40;;;;;;;18.18;100.00;96215.34;5053742;28;20666;-52
2022/06/24 01:04:20;;;;;;;2.13;0.98;;;;;;;18.21;100.00;96206.94;5053753;28;20203;-51
2022/06/24 01:06:47;;;;;;;1.83;1.13;;;;;;;18.13;100.00;96209.78;5053620;28;20285;-52
2022/06/24 01:09:16;;;;;;;2.30;1.08;;;;;;;18.09;100.00;96206.66;5052982;28;20613;-52
2022/06/24 01:11:45;;;;;;;4.53;1.95;;;;;;;18.13;100.00;96204.41;5053695;28;20700;-52
2022/06/24 01:14:15;;;;;;;2.33;1.40;;;;;;;18.13;100.00;96201.75;5053252;28;20286;-52
2022/06/24 01:16:43;;;;;;;1.33;1.17;;;;;;;18.11;100.00;96203.78;5053863;28;20200;-53
2022/06/24 01:19:11;;;;;;;2.60;1.30;;;;;;;18.09;100.00;96200.50;5053648;28;20265;-52
2022/06/24 01:21:40;;;;;;;2.72;1.50;;;;;;;18.02;100.00;96202.31;5053170;28;20223;-53
2022/06/24 01:24:10;;;;;;;2.15;1.20;;;;;;;18.00;100.00;96204.34;5054152;28;20206;-52
2022/06/24 01:26:40;;;;;;;4.38;1.45;;;;;;;17.89;100.00;96203.91;5052059;28;20270;-52
2022/06/24 01:29:07;;;;;;;2.05;1.00;;;;;;;17.87;100.00;96207.81;5053250;28;20222;-52
2022/06/24 01:31:38;;;;;;;2.75;1.30;;;;;;;17.82;100.00;96196.84;5052935;28;20711;-52
2022/06/24 01:34:05;;;;;;;1.77;1.23;;;;;;;17.83;100.00;96194.00;5053784;28;20233;-52
2022/06/24 01:36:32;;;;;;;1.85;1.25;;;;;;;17.78;100.00;96196.44;5052723;28;20210;-51
2022/06/24 01:39:00;;;;;;;3.08;1.20;;;;;;;17.83;100.00;96199.34;5053309;28;20531;-52
2022/06/24 01:41:26;;;;;;;2.10;0.90;;;;;;;17.84;100.00;96195.66;5052827;28;20237;-52
2022/06/24 01:43:53;;;;;;;3.13;1.40;;;;;;;17.85;100.00;96194.63;5051500;28;20241;-51
2022/06/24 01:46:19;;;;;;;1.40;1.20;;;;;;;17.85;100.00;96191.13;5052591;28;20195;-53
2022/06/24 01:48:46;;;;;;;3.38;1.23;;;;;;;17.85;100.00;96196.50;5052177;28;20207;-51
2022/06/24 01:51:14;;;;;;;2.13;1.37;;;;;;;17.79;100.00;96192.75;5052679;28;20227;-52
2022/06/24 01:53:41;;;;;;;3.20;1.10;;;;;;;17.71;100.00;96197.44;5053330;28;20282;-51
2022/06/24 01:56:09;;;;;;;2.00;1.27;;;;;;;17.73;100.00;96185.53;5053323;28;20210;-53
2022/06/24 01:58:36;;;;;;;3.73;1.10;;;;;;;17.78;100.00;96190.28;5052663;28;20208;-52
2022/06/24 02:01:03;;;;;;;3.40;1.38;;;;;;;17.77;100.00;96178.75;5052649;28;20293;-52
2022/06/24 02:03:30;;;;;;;2.15;1.08;;;;;;;17.78;100.00;96183.06;5053049;28;20295;-51
2022/06/24 02:05:58;;;;;;;2.22;1.20;;;;;;;17.84;100.00;96184.97;5052748;28;20720;-52
2022/06/24 02:08:25;;;;;;;1.75;1.23;;;;;;;17.85;100.00;96189.25;5052093;28;20717;-52
2022/06/24 02:13:37;;;;;;;2.65;1.58;;;;;;;17.89;100.00;96184.34;5052785;28;20203;-52
2022/06/24 02:16:05;;;;;;;2.83;1.60;;;;;;;17.94;100.00;96179.22;5068501;28;20206;-53
2022/06/24 02:18:33;;;;;;;2.67;1.30;;;;;;;17.96;100.00;96181.72;5073843;28;20200;-52
2022/06/24 02:21:00;;;;;;;5.73;1.50;;;;;;;17.99;100.00;96181.31;5071811;28;20234;-52
2022/06/24 02:23:28;;;;;;;3.03;1.27;;;;;;;18.04;100.00;96173.50;5073108;28;20200;-52
2022/06/24 02:25:55;;;;;;;3.08;1.25;;;;;;;18.07;100.00;96175.75;5075647;28;20227;-54
2022/06/24 02:28:21;;;;;;;3.50;1.33;;;;;;;18.10;100.00;96178.06;5067933;28;20195;-52
2022/06/24 02:30:52;;;;;;;2.92;1.30;;;;;;;18.12;100.00;96179.50;5052267;28;20544;-52
2022/06/24 02:33:19;;;;;;;2.47;1.20;;;;;;;18.17;100.00;96168.22;5052266;28;20205;-52
2022/06/24 02:35:47;;;;;;;3.42;1.40;;;;;;;18.20;100.00;96167.81;5052205;28;20211;-52
2022/06/24 02:38:13;;;;;;;1.92;1.33;;;;;;;18.19;100.00;96163.47;5052386;28;20298;-52
2022/06/24 02:40:46;;;;;;;4.32;1.58;;;;;;;18.19;100.00;96156.25;5052297;28;20318;-51
2022/06/24 02:43:14;;;;;;;4.82;1.67;;;;;;;18.16;100.00;96159.34;5052707;28;20282;-52
2022/06/24 02:45:41;;;;;;;3.78;1.40;;;;;;;18.29;100.00;96159.38;5052174;28;20206;-51
2022/06/24 02:48:09;;;;;;;3.78;1.33;;;;;;;18.29;100.00;96155.88;5076878;28;20282;-51
2022/06/24 02:50:40;;;;;;;4.63;1.55;;;;;;;18.24;100.00;96159.16;5073960;28;20227;-53
2022/06/24 02:53:06;;;;;;;3.55;1.67;;;;;;;18.26;100.00;96151.75;5068949;28;20206;-52
2022/06/24 02:55:35;;;;;;;2.97;1.30;;;;;;;18.22;100.00;96163.06;5056760;28;20218;-52
2022/06/24 02:58:01;;;;;;;1.65;1.23;;;;;;;18.23;100.00;96159.38;5054092;28;20206;-52
2022/06/24 03:00:28;;;;;;;2.75;1.30;;;;;;;18.22;100.00;96160.38;5053219;28;20742;-51
2022/06/24 03:02:56;;;;;;;2.28;1.33;;;;;;;18.26;100.00;96157.09;5053523;28;20211;-53
2022/06/24 03:05:24;;;;;;;4.97;1.75;;;;;;;18.28;100.00;96154.25;5052635;28;20227;-52
2022/06/24 03:07:51;;;;;;;3.55;1.50;;;;;;;18.28;100.00;96151.56;5052789;28;20199;-52
2022/06/24 03:10:18;;;;;;;3.33;1.48;;;;;;;18.32;100.00;96150.09;5052488;28;20202;-51
2022/06/24 03:12:45;;;;;;;3.50;1.60;;;;;;;18.31;100.00;96148.47;5052926;28;20211;-52
2022/06/24 03:15:11;;;;;;;2.90;1.60;;;;;;;18.31;100.00;96151.16;5052766;28;20270;-52
2022/06/24 03:17:38;;;;;;;3.75;1.70;;;;;;;18.31;100.00;96148.47;5052008;28;20552;-52
2022/06/24 03:20:07;;;;;;;2.30;1.35;;;;;;;18.39;100.00;96141.06;5051644;28;20209;-52
2022/06/24 03:22:35;;;;;;;4.18;1.80;;;;;;;18.40;100.00;96142.72;5053089;28;20207;-51
2022/06/24 03:25:01;;;;;;;4.78;1.70;;;;;;;18.36;100.00;96140.66;5054240;28;20282;-52
2022/06/24 03:27:28;;;;;;;6.03;1.75;;;;;;;18.35;100.00;96150.53;5055905;28;20286;-52
2022/06/24 03:29:54;;;;;;;3.50;1.90;;;;;;;18.36;100.00;96141.47;5062503;28;20210;-51
2022/06/24 03:32:21;;;;;;;4.38;1.70;;;;;;;18.36;100.00;96152.19;5065922;28;20195;-52
2022/06/24 03:34:48;;;;;;;3.53;2.05;;;;;;;18.35;100.00;96155.88;5062361;28;20211;-52
2022/06/24 03:37:14;;;;;;;3.70;1.83;;;;;;;18.37;100.00;96153.00;5067961;28;20195;-51
2022/06/24 03:39:42;;;;;;;2.90;1.45;;;;;;;18.40;100.00;96152.59;5076396;28;20259;-51
2022/06/24 03:42:09;;;;;;;3.40;1.80;;;;;;;18.38;100.00;96154.66;5077421;28;20210;-52
2022/06/24 03:44:35;;;;;;;7.15;1.85;;;;;;;18.37;100.00;96153.84;5080914;28;20187;-52
2022/06/24 03:47:02;;;;;;;3.45;1.58;;;;;;;18.42;100.00;96145.22;5082646;28;20205;-51
2022/06/24 03:49:29;;;;;;;3.83;2.03;;;;;;;18.41;100.00;96162.28;5081423;28;20222;-51
2022/06/24 03:51:56;;;;;;;5.18;2.00;;;;;;;18.46;100.00;96162.50;5077647;28;20191;-52
2022/06/24 03:54:23;;;;;;;6.68;2.40;;;;;;;18.42;100.00;96167.41;5081495;28;20198;-52
2022/06/24 03:56:50;;;;;;;4.50;1.92;;;;;;;18.44;100.00;96166.41;5085035;28;20199;-51
2022/06/24 03:59:17;;;;;;;5.60;1.80;;;;;;;18.40;100.00;96163.31;5076312;28;20183;-52
2022/06/24 04:01:44;;;;;;;2.38;1.58;;;;;;;18.41;100.00;96170.31;5077414;28;20229;-52
2022/06/24 04:04:10;;;;;;;2.67;1.40;;;;;;;18.42;100.00;96167.41;5055888;28;20207;-52
2022/06/24 04:06:37;;;;;;;3.25;1.73;;;;;;;18.46;100.00;96159.81;5054841;28;20285;-51
2022/06/24 04:09:04;;;;;;;3.80;1.83;;;;;;;18.45;100.00;96163.53;5055241;28;20207;-52
2022/06/24 04:11:30;;;;;;;4.15;2.10;;;;;;;18.47;100.00;96169.50;5055215;28;20211;-52
2022/06/24 04:14:00;;;;;;;6.18;1.90;;;;;;;18.50;100.00;96169.09;5055321;28;20203;-52
2022/06/24 04:16:26;;;;;;;2.88;1.60;;;;;;;18.51;100.00;96178.81;5055076;28;20214;-52
2022/06/24 04:18:53;;;;;;;2.15;1.77;;;;;;;18.54;100.00;96175.72;5054993;28;20199;-52
2022/06/24 04:21:20;;;;;;;2.97;1.73;;;;;;;18.57;100.00;96164.59;5054503;28;20219;-52
2022/06/24 04:23:49;;;;;;;3.03;1.80;;;;;;;18.61;100.00;96168.53;5054985;28;20238;-51
2022/06/24 04:26:16;;;;;;;2.83;2.17;;;;;;;18.60;100.00;96174.91;5054691;28;20257;-52
2022/06/24 04:28:43;;;;;;;4.78;2.20;;;;;;;18.64;100.00;96175.31;5053850;28;20731;-52
2022/06/24 04:31:11;;;;;;;5.25;2.00;;;;;;;18.63;100.00;96169.16;5055150;28;20295;-52
2022/06/24 04:33:37;;;;;;;4.00;2.00;;;;;;;18.66;100.00;96162.56;5054618;28;20286;-53
2022/06/24 04:36:05;;;;;;;5.78;2.10;;;;;;;18.65;100.00;96156.38;5054319;28;20207;-52
2022/06/24 04:38:31;;;;;;;5.68;2.05;;;;;;;18.71;100.00;96158.22;5054243;28;20301;-52
2022/06/24 04:41:00;;;;;;;2.65;1.77;;;;;;;18.77;100.00;96153.91;5054308;28;20238;-52
2022/06/24 04:43:27;;;;;;;2.63;1.70;;;;;;;18.85;100.00;96156.38;5053909;28;20222;-52
2022/06/24 04:45:53;;;;;;;2.67;1.80;;;;;;;19.09;100.00;96155.75;5054581;28;20231;-52
2022/06/24 04:48:21;;;;;;;5.30;2.08;;;;;;;19.29;100.00;96153.03;5055060;28;20238;-53
2022/06/24 04:50:48;;;;;;;6.07;2.40;;;;;;;19.39;100.00;96158.78;5053571;28;20246;-52
2022/06/24 04:53:14;;;;;;;4.20;2.10;;;;;;;19.43;100.00;96143.16;5054332;28;20306;-53
2022/06/24 04:55:41;;;;;;;3.20;1.90;;;;;;;19.45;100.00;96144.56;5053616;28;20198;-52
2022/06/24 04:58:08;;;;;;;2.17;1.85;;;;;;;19.41;100.00;96135.31;5065493;28;20219;-52
2022/06/24 05:00:34;;;;;;;6.57;1.92;;;;;;;19.39;100.00;96130.13;5075991;28;20195;-53
2022/06/24 05:03:01;;;;;;;6.20;2.25;;;;;;;19.47;100.00;96123.75;5071434;28;20212;-52
2022/06/24 05:05:29;;;;;;;3.70;2.10;;;;;;;19.53;100.00;96132.78;5055266;28;20286;-52
2022/06/24 05:07:56;;;;;;;3.63;1.95;;;;;;;19.66;100.00;96128.22;5055492;28;20329;-53
2022/06/24 05:10:23;;;;;;;6.47;2.83;;;;;;;19.78;100.00;96128.38;5055540;28;20534;-53
2022/06/24 05:12:49;;;;;;;5.88;2.45;;;;;;;19.97;100.00;96129.34;5055027;28;20282;-52
2022/06/24 05:15:16;;;;;;;7.75;2.85;;;;;;;20.21;100.00;96123.22;5053682;28;20294;-52
2022/06/24 05:17:42;;;;;;;5.93;2.25;;;;;;;20.47;100.00;96119.56;5054079;28;20214;-52
2022/06/24 05:20:10;;;;;;;3.67;2.22;;;;;;;20.70;99.18;96119.81;5053742;28;20826;-52
2022/06/24 05:22:38;;;;;;;5.07;2.35;;;;;;;20.92;96.59;96117.56;5053492;28;20291;-52
2022/06/24 05:25:07;;;;;;;6.10;2.58;;;;;;;21.16;96.87;96120.25;5053369;28;20517;-51
2022/06/24 05:27:34;;;;;;;5.10;2.78;;;;;;;21.39;92.96;96129.56;5052881;28;20690;-52
2022/06/24 05:30:01;;;;;;;8.52;3.33;;;;;;;21.54;89.92;96117.38;5053094;28;20210;-52
2022/06/24 05:32:28;;;;;;;5.38;2.80;;;;;;;21.71;87.57;96115.75;5052541;28;20290;-52
2022/06/24 05:34:56;;;;;;;5.82;3.00;;;;;;;21.78;87.76;96118.34;5053144;28;20651;-52
2022/06/24 05:37:22;;;;;;;6.28;2.95;;;;;;;21.93;86.31;96123.41;5051753;28;20232;-52
2022/06/24 05:39:50;;;;;;;8.00;3.50;;;;;;;22.18;85.51;96124.06;5051797;28;20199;-53
2022/06/24 05:42:17;;;;;;;11.55;3.30;;;;;;;22.39;85.62;96120.88;5053699;28;21379;-52
2022/06/24 05:44:43;;;;;;;10.13;3.10;;;;;;;22.57;83.99;96119.97;5051617;28;20226;-52
2022/06/24 05:47:10;;;;;;;5.35;2.72;;;;;;;22.89;83.60;96118.69;5053844;28;20305;-52
2022/06/24 05:49:38;;;;;;;6.22;2.85;;;;;;;23.00;81.88;96112.47;5053701;28;20326;-52
2022/06/24 05:52:05;;;;;;;6.57;2.45;;;;;;;23.22;75.49;96101.94;5053711;28;20529;-52
2022/06/24 05:57:17;;;;;;;6.63;3.10;;;;;;;23.86;75.90;96108.22;5053633;28;20651;-52
2022/06/24 05:59:44;;;;;;;5.82;2.90;;;;;;;24.04;76.25;96108.03;5052625;28;20636;-53
2022/06/24 06:02:10;;;;;;;9.43;2.75;;;;;;;24.17;73.34;96091.56;5052898;28;20771;-51
2022/06/24 06:04:37;;;;;;;11.07;3.00;;;;;;;24.17;70.23;96087.00;5053655;28;20218;-52
2022/06/24 06:07:04;;;;;;;10.25;2.83;;;;;;;24.43;71.18;96087.47;5056169;28;20203;-51
2022/06/24 06:09:31;;;;;;;5.63;2.58;;;;;;;24.36;68.40;96079.50;5054505;28;20206;-52
2022/06/24 06:11:58;;;;;;;5.72;2.40;;;;;;;24.15;70.36;96077.50;5054404;28;20702;-51
2022/06/24 06:14:26;;;;;;;4.15;2.22;;;;;;;23.99;70.55;96089.03;5052960;28;20289;-52
2022/06/24 06:16:53;;;;;;;7.88;2.88;;;;;;;23.93;69.41;96081.88;5053112;28;20222;-52
2022/06/24 06:19:21;;;;;;;6.68;2.70;;;;;;;23.87;67.04;96090.97;5053945;28;20229;-52
2022/06/24 06:21:48;;;;;;;8.95;2.65;;;;;;;24.20;67.67;96080.28;5053996;28;20242;-52
2022/06/24 06:24:15;;;;;;;5.40;2.53;;;;;;;24.47;67.94;96070.53;5053196;28;20246;-51
2022/06/24 06:26:41;;;;;;;8.25;2.83;;;;;;;24.76;65.40;96074.78;5053779;28;20588;-52
2022/06/24 06:29:08;;;;;;;5.57;2.60;;;;;;;25.06;65.47;96074.50;5052878;28;20241;-53
2022/06/24 06:31:36;;;;;;;8.32;2.80;;;;;;;25.32;61.56;96072.16;5053003;28;20199;-51
2022/06/24 06:34:03;;;;;;;6.03;2.35;;;;;;;25.36;64.65;96073.31;5052834;28;20298;-52
2022/06/24 06:36:29;;;;;;;5.88;2.80;;;;;;;25.40;61.68;96069.81;5052913;28;20195;-52
2022/06/24 06:38:56;;;;;;;8.18;2.70;;;;;;;25.63;61.32;96064.22;5051644;28;20207;-53
2022/06/24 06:41:22;;;;;;;7.97;2.50;;;;;;;25.75;62.66;96064.13;5052515;28;20234;-52
2022/06/24 06:43:49;;;;;;;7.15;3.35;;;;;;;25.98;61.39;96061.13;5054638;28;20211;-52
2022/06/24 06:46:15;;;;;;;6.68;2.80;;;;;;;25.96;59.59;96055.16;5059341;28;20659;-51
2022/06/24 06:48:43;;;;;;;9.82;5.03;;;;;;;26.23;59.83;96053.31;5060501;28;20199;-52
2022/06/24 06:51:10;;;;;;;11.93;9.50;;;;;;;26.08;60.88;96049.56;5056852;28;20247;-52
2022/06/24 06:53:37;;;;;;;6.57;3.40;;;;;;;25.69;60.68;96049.69;5052788;28;20293;-51
2022/06/24 06:56:04;;;;;;;6.32;2.90;;;;;;;25.30;62.94;96050.75;5052363;28;20298;-52
2022/06/24 06:58:31;;;;;;;8.68;2.70;;;;;;;25.10;62.07;96048.59;5053259;28;20207;-52
2022/06/24 07:00:58;;;;;;;6.25;3.00;;;;;;;24.67;65.67;96048.41;5053142;28;20286;-51
2022/06/24 07:03:24;;;;;;;6.10;2.53;;;;;;;24.58;66.64;96050.72;5064837;28;20218;-53
2022/06/24 07:05:52;;;;;;;5.22;2.47;;;;;;;24.63;65.73;96050.78;5074274;28;20199;-52
2022/06/24 07:08:20;;;;;;;7.47;2.60;;;;;;;24.56;65.67;96046.59;5074993;28;20200;-51
2022/06/24 07:10:47;;;;;;;9.30;2.95;;;;;;;24.18;65.82;96044.59;5055679;28;21513;-52
2022/06/24 07:13:13;;;;;;;6.47;2.70;;;;;;;24.28;66.38;96032.06;5054691;28;20207;-51
2022/06/24 07:15:40;;;;;;;7.45;3.38;;;;;;;24.37;68.45;96028.97;5052346;28;20748;-50
2022/06/24 07:18:07;;;;;;;7.47;3.05;;;;;;;24.69;69.67;96025.44;5051980;28;20203;-52
2022/06/24 07:20:34;;;;;;;6.93;3.10;;;;;;;25.09;65.99;96024.47;5052290;28;20208;-51
2022/06/24 07:23:02;;;;;;;8.98;3.10;;;;;;;25.27;65.66;96016.88;5052528;28;20234;-52
2022/06/24 07:25:30;;;;;;;6.50;2.90;;;;;;;25.43;66.04;96017.91;5051439;28;20227;-52
2022/06/24 07:27:57;;;;;;;11.00;3.22;;;;;;;25.55;67.95;96013.22;5051635;28;20286;-51
2022/06/24 07:30:23;;;;;;;8.77;3.22;;;;;;;25.79;63.60;96002.91;5052739;28;20195;-53
2022/06/24 07:32:50;;;;;;;7.68;2.97;;;;;;;26.36;62.51;96003.25;5051967;28;20290;-52
2022/06/24 07:35:17;;;;;;;7.15;2.70;;;;;;;26.37;58.70;96002.19;5052245;28;20203;-51
2022/06/24 07:37:45;;;;;;;11.45;3.38;;;;;;;26.52;62.67;95999.63;5062874;28;20222;-53
2022/06/24 07:40:15;;;;;;;6.40;2.65;;;;;;;26.68;57.44;96004.09;5061098;28;20237;-53
2022/06/24 07:42:42;;;;;;;7.88;3.35;;;;;;;26.43;58.78;95998.44;5055598;28;20202;-52
2022/06/24 07:45:10;;;;;;;6.90;2.70;;;;;;;26.43;59.15;95993.03;5055693;28;20206;-51
2022/06/24 07:47:36;;;;;;;11.27;3.67;;;;;;;26.28;59.34;95987.50;5062588;28;20219;-51
2022/06/24 07:50:04;;;;;;;9.77;3.17;;;;;;;26.38;59.22;95981.34;5068270;28;20245;-51
2022/06/24 07:52:33;;;;;;;8.82;2.97;;;;;;;26.03;60.68;95977.19;5051413;28;20863;-51
2022/06/24 07:57:47;;;;;;;5.35;2.67;;;;;;;26.03;57.68;95979.91;5030231;28;20207;-53
2022/06/24 08:00:14;;;;;;;9.68;3.10;;;;;;;25.60;62.33;95966.44;5050725;28;20227;-51
2022/06/24 08:02:41;;;;;;;5.78;2.88;;;;;;;25.42;61.56;95980.25;5049803;28;20314;-51
2022/06/24 08:05:08;;;;;;;7.07;2.85;;;;;;;25.33;59.59;95969.03;5054164;28;20298;-51
2022/06/24 08:07:35;;;;;;;8.90;2.75;;;;;;;25.03;61.82;95965.94;5053079;28;20199;-51
2022/06/24 08:10:02;;;;;;;8.65;3.10;;;;;;;24.86;63.02;95970.56;5053819;28;20207;-51
2022/06/24 08:12:28;;;;;;;6.40;2.65;;;;;;;24.82;62.64;95969.41;5051190;28;20218;-51
2022/06/24 08:14:56;;;;;;;7.80;3.10;;;;;;;24.68;63.15;95969.75;5053442;28;20656;-51
2022/06/24 08:17:22;;;;;;;7.07;3.33;;;;;;;24.49;64.22;95972.94;5053943;28;20211;-53
2022/06/24 08:19:49;;;;;;;7.43;2.50;;;;;;;24.36;62.62;95970.59;5053543;28;20601;-50
2022/06/24 08:22:16;;;;;;;5.20;2.63;;;;;;;24.11;62.90;95971.78;5051748;28;20227;-51
2022/06/24 08:24:42;;;;;;;8.27;3.25;;;;;;;24.07;66.24;95972.50;5048574;28;20620;-51
2022/06/24 08:27:09;;;;;;;9.93;3.25;;;;;;;24.12;63.60;95969.88;5050248;28;20203;-51
2022/06/24 08:29:35;;;;;;;5.38;2.88;;;;;;;24.09;63.67;95971.19;5050005;28;20305;-50
2022/06/24 08:32:04;;;;;;;9.65;3.00;;;;;;;24.02;65.96;95972.41;5053900;28;20632;-51
2022/06/24 08:34:30;;;;;;;8.77;2.97;;;;;;;24.01;66.04;95968.06;5053430;28;20658;-50
2022/06/24 08:36:57;;;;;;;8.30;3.05;;;;;;;24.11;65.50;95963.66;5054012;28;20217;-50
2022/06/24 08:39:23;;;;;;;8.75;2.85;;;;;;;24.22;66.48;95952.00;5053633;28;20687;-52
2022/06/24 08:41:53;;;;;;;7.85;3.05;;;;;;;24.17;69.45;95951.91;5064303;28;20203;-51
2022/06/24 08:44:19;;;;;;;7.43;2.95;;;;;;;24.26;70.00;95949.63;5072256;28;20206;-51
2022/06/24 08:46:46;;;;;;;6.30;3.00;;;;;;;24.30;65.63;95949.94;5074852;28;20206;-51
2022/06/24 08:49:14;;;;;;;7.90;2.80;;;;;;;24.32;68.27;95953.22;5056371;28;20203;-51
2022/06/24 08:51:41;;;;;;;7.18;2.75;;;;;;;24.38;67.07;95963.84;5054355;28;20278;-52
2022/06/24 08:54:10;;;;;;;8.70;3.40;;;;;;;24.44;66.32;95962.06;5054268;28;20198;-50
2022/06/24 08:56:36;;;;;;;9.20;3.20;;;;;;;24.50;66.97;95959.19;5054529;28;20306;-50
2022/06/24 08:59:03;;;;;;;6.80;2.90;;;;;;;24.51;66.34;95955.44;5054090;28;20290;-51
2022/06/24 09:01:30;;;;;;;6.68;3.25;;;;;;;24.58;64.89;95953.38;5054240;28;20605;-51
2022/06/24 09:03:56;;;;;;;6.03;2.78;;;;;;;24.64;65.01;95944.28;5054453;28;20234;-51
2022/06/24 09:06:24;;;;;;;5.53;2.88;;;;;;;24.76;66.32;95941.47;5052508;28;20290;-51
2022/06/24 09:08:53;;;;;;;8.70;3.05;;;;;;;24.81;65.26;95946.13;5052022;28;20211;-50
2022/06/24 09:11:20;;;;;;;5.93;2.83;;;;;;;25.00;64.77;95948.34;5069634;28;20179;-51
2022/06/24 09:13:48;;;;;;;7.32;2.35;;;;;;;25.06;62.36;95949.22;5077869;28;20213;-50
2022/06/24 09:16:17;;;;;;;7.63;2.63;;;;;;;24.86;63.01;95954.34;5072074;28;20235;-51
2022/06/24 09:18:53;;;;;;;7.28;2.95;;;;;;;24.87;65.01;95951.38;5055056;28;20219;-51
2022/06/24 09:21:25;;;;;;;4.40;2.72;;;;;;;25.09;66.07;95954.13;5055058;28;20213;-52
2022/06/24 09:23:54;;;;;;;4.63;2.50;;;;;;;25.16;62.98;95944.75;5054288;28;20227;-52
2022/06/24 09:26:34;;;;;;;6.38;2.67;;;;;;;25.14;63.43;95951.50;5054687;28;20214;-52
2022/06/24 09:29:01;;;;;;;4.25;2.78;;;;;;;25.23;64.27;95950.78;5054865;28;20297;-51
2022/06/24 09:31:31;;;;;;;6.63;2.67;;;;;;;25.16;64.46;95947.44;5053544;28;20203;-52
2022/06/24 09:34:07;;;;;;;6.78;2.92;;;;;;;25.34;65.20;95935.50;5053098;28;20207;-51
2022/06/24 09:36:35;;;;;;;5.63;2.90;;;;;;;25.37;63.65;95935.00;5054280;28;20195;-52
2022/06/24 09:39:04;;;;;;;6.55;2.60;;;;;;;25.52;64.22;95932.50;5054142;28;20297;-52
2022/06/24 09:41:32;;;;;;;5.05;2.63;;;;;;;25.45;64.63;95934.53;5053810;28;20591;-52
2022/06/24 09:44:01;;;;;;;9.00;2.78;;;;;;;25.42;64.97;95935.06;5052773;28;20219;-52
2022/06/24 09:46:27;;;;;;;7.13;3.17;;;;;;;25.34;62.83;95945.50;5053529;28;20583;-52
2022/06/24 09:49:04;;;;;;;3.58;2.63;;;;;;;25.20;65.66;95950.47;5053461;28;20703;-51
2022/06/24 09:51:31;;;;;;;4.47;2.88;;;;;;;25.17;65.14;95950.97;5053183;28;20289;-54
2022/06/24 09:53:59;;;;;;;9.45;3.47;;;;;;;24.93;64.81;95944.16;5052455;28;20214;-52
2022/06/24 09:56:25;;;;;;;6.22;3.15;;;;;;;24.72;67.71;95933.03;5052425;28;20356;-52
2022/06/24 10:01:35;;;;;;;8.70;3.17;;;;;;;24.56;64.65;95927.63;5052726;28;20198;-51
2022/06/24 10:04:04;;;;;;;7.68;3.05;;;;;;;24.45;65.63;95921.28;5052364;28;20220;-51
2022/06/24 10:06:34;;;;;;;5.43;2.90;;;;;;;24.44;65.66;95919.66;5052832;28;20294;-53
2022/06/24 10:09:03;;;;;;;5.63;3.13;;;;;;;24.27;64.65;95916.13;5052957;28;20655;-50
2022/06/24 10:11:31;;;;;;;5.07;2.88;;;;;;;24.27;64.96;95918.81;5053007;28;20298;-51
2022/06/24 10:13:58;;;;;;;6.95;2.80;;;;;;;24.27;66.42;95925.03;5053660;28;20338;-53
2022/06/24 10:16:26;;;;;;;6.07;2.95;;;;;;;24.32;63.36;95921.59;5051561;28;20620;-53
2022/06/24 10:18:53;;;;;;;6.88;2.70;;;;;;;24.37;61.51;95919.00;5052959;28;20579;-52
2022/06/24 10:21:20;;;;;;;5.07;2.83;;;;;;;24.31;63.80;95924.53;5052824;28;20203;-52
2022/06/24 10:23:51;;;;;;;8.77;3.30;;;;;;;24.28;63.08;95925.88;5052459;28;20223;-52
2022/06/24 10:26:25;;;;;;;7.75;2.60;;;;;;;24.38;63.86;95927.91;5052694;28;20192;-52
2022/06/24 10:29:28;;;;;;;8.05;2.92;;;;;;;24.28;64.28;95923.16;5053125;28;20210;-53
2022/06/24 10:32:09;;;;;;;5.13;2.72;;;;;;;24.26;63.30;95918.03;5051745;28;20707;-53
2022/06/24 10:34:38;;;;;;;5.85;2.90;;;;;;;24.20;65.32;95912.75;5052330;28;20199;-53
2022/06/24 10:37:08;;;;;;;7.30;3.00;;;;;;;24.09;66.27;95913.66;5052128;28;20205;-53
2022/06/24 10:39:44;;;;;;;11.40;3.45;;;;;;;24.07;65.95;95904.97;5052580;28;20249;-53
2022/06/24 10:42:14;;;;;;;4.35;2.90;;;;;;;23.93;66.83;95909.03;5051635;28;20646;-53
2022/06/24 10:44:53;;;;;;;7.57;2.90;;;;;;;23.76;65.87;95917.94;5053381;28;20253;-54
2022/06/24 10:47:39;;;;;;;4.78;2.58;;;;;;;23.63;68.13;95912.84;5051914;28;20639;-54
2022/06/24 10:50:14;;;;;;;5.47;2.60;;;;;;;23.50;69.07;95918.53;5056724;28;20250;-51
2022/06/24 10:52:45;;;;;;;6.03;3.05;;;;;;;23.45;66.61;95910.38;5055865;28;20290;-51
2022/06/24 10:55:33;;;;;;;5.55;2.75;;;;;;;23.44;67.72;95908.72;5057675;28;20195;-53
2022/06/24 10:58:05;;;;;;;4.30;2.20;;;;;;;23.31;65.56;95904.38;5060121;28;20210;-54
2022/06/24 11:00:55;;;;;;;4.32;2.70;;;;;;;23.17;70.12;95912.97;5058593;28;20195;-51
2022/06/24 11:03:28;;;;;;;4.82;2.83;;;;;;;23.09;72.45;95932.25;5051322;28;20241;-51
2022/06/24 11:05:54;;;;;;;4.00;2.33;;;;;;;22.95;70.50;95938.97;5051222;28;20319;-51
2022/06/24 11:08:23;;;;;;;4.80;2.97;;;;;;;22.87;70.26;95944.72;5050940;28;20298;-51
2022/06/24 11:10:50;;;;;;;5.03;2.70;;;;;;;22.74;72.90;95962.78;5051319;28;20210;-51
2022/06/24 11:13:21;;;;;;;2.42;2.03;;;;;;;22.62;72.37;95980.81;5052561;28;20218;-51
2022/06/24 11:15:52;;;;;;;4.45;1.80;;;;;;;22.43;70.74;95986.50;5055519;28;20290;-51
2022/06/24 11:18:20;;;;;;;6.13;2.80;;;;;;;22.20;76.07;96009.69;5055809;28;20202;-51
2022/06/24 11:20:49;;;;;;;7.05;3.33;;;;;;;21.91;84.56;96021.31;5056867;28;21417;-52
2022/06/24 11:23:17;;;;;;;9.50;2.72;;;;;;;21.55;85.07;96032.94;5056343;28;20223;-51
2022/06/24 11:25:46;;;;;;;3.70;2.83;;;;;;;21.37;88.40;96041.00;5052709;28;20199;-51
2022/06/24 11:28:25;;;;;;;4.10;2.50;;;;;;;21.00;87.44;96053.59;5054110;28;20207;-52
2022/06/24 11:30:53;;;;;;;6.15;2.53;;;;;;;20.64;94.30;96062.41;5051634;28;20277;-50
2022/06/24 11:33:19;;;;;;;6.70;3.63;;;;;;;20.56;96.54;96060.00;5051338;28;20199;-51
2022/06/24 11:35:47;;;;;;;4.43;2.70;;;;;;;20.33;100.00;96078.56;5051765;28;20599;-52
2022/06/24 11:38:14;;;;;;;7.30;3.78;;;;;;;20.17;100.00;96061.06;5050860;28;20199;-51
2022/06/24 11:40:42;;;;;;;6.05;3.72;;;;;;;20.03;100.00;96066.75;5054105;28;20656;-51
2022/06/24 11:43:11;;;;;;;6.35;3.22;;;;;;;19.90;100.00;96064.13;5061440;28;20218;-52
2022/06/24 11:45:40;;;;;;;6.68;3.35;;;;;;;19.74;100.00;96071.63;5057389;28;20195;-50